Time;durP1;ratioP1;P1;durP2;ratioP2;P2;SDS_P1;SDS_P2;PMS_P1;PMS_P2;Temp;Humidity;BMP_temperature;BMP_pressure;BME280_temperature;BME280_humidity;BME280_pressure;Samples;Min_cycle;Max_cycle;Signal;HPM_P1;HPM_P2
2022/07/06 00:02:18;;;;;;;5.83;4.85;;;;;;;20.19;88.87;97712.01;1630704;88;21067;-61
2022/07/06 00:04:45;;;;;;;5.40;4.70;;;;;;;20.19;88.69;97706.57;1658973;86;20894;-64
2022/07/06 00:07:11;;;;;;;4.58;4.17;;;;;;;20.18;88.59;97699.58;1658905;86;20972;-63
2022/07/06 00:09:38;;;;;;;5.92;4.40;;;;;;;20.17;88.22;97701.50;1659016;86;20908;-63
2022/07/06 00:12:05;;;;;;;4.50;4.10;;;;;;;20.17;88.13;97691.98;1658960;86;20901;-64
2022/07/06 00:14:31;;;;;;;5.67;4.22;;;;;;;20.18;87.97;97689.50;1659126;86;21527;-63
2022/07/06 00:16:58;;;;;;;6.17;4.30;;;;;;;20.17;87.91;97682.47;1630802;88;21405;-63
2022/07/06 00:19:24;;;;;;;5.22;4.10;;;;;;;20.17;87.81;97674.31;1659021;86;21063;-60
2022/07/06 00:21:50;;;;;;;8.68;4.40;;;;;;;20.15;87.51;97663.02;1638952;86;21044;-60
2022/07/06 00:24:20;;;;;;;4.83;4.08;;;;;;;20.17;87.29;97664.80;1671551;85;21389;-60
2022/07/06 00:26:47;;;;;;;5.30;4.10;;;;;;;20.15;87.07;97664.38;1710720;83;21126;-64
2022/07/06 00:29:13;;;;;;;4.75;4.10;;;;;;;20.10;86.89;97660.59;1710949;83;20940;-64
2022/07/06 00:31:40;;;;;;;4.83;4.40;;;;;;;20.06;86.78;97665.74;1710469;84;21019;-62
2022/07/06 00:34:07;;;;;;;4.47;3.95;;;;;;;20.05;87.17;97663.59;1710865;83;21484;-58
2022/07/06 00:36:34;;;;;;;4.30;3.90;;;;;;;20.03;87.32;97665.89;1710575;83;20980;-60
2022/07/06 00:39:00;;;;;;;4.83;4.20;;;;;;;20.01;87.16;97661.39;1710573;83;21127;-62
2022/07/06 00:41:26;;;;;;;5.70;4.55;;;;;;;20.01;87.36;97660.03;1710671;84;20929;-58
2022/07/06 00:43:56;;;;;;;4.35;3.75;;;;;;;20.03;87.05;97652.30;1688053;84;20937;-59
2022/07/06 00:46:32;;;;;;;6.40;4.35;;;;;;;20.05;87.35;97645.92;1710944;84;20909;-62
2022/07/06 00:48:58;;;;;;;4.03;3.60;;;;;;;20.02;87.36;97639.07;1710520;84;20921;-59
2022/07/06 00:51:30;;;;;;;4.62;3.90;;;;;;;20.05;86.97;97632.33;1711008;83;21956;-59
2022/07/06 00:54:03;;;;;;;4.50;4.00;;;;;;;20.07;86.42;97623.23;1710403;83;20896;-62
2022/07/06 00:56:31;;;;;;;4.40;4.00;;;;;;;20.11;85.82;97617.31;1711178;83;21444;-60
2022/07/06 00:59:00;;;;;;;7.62;3.92;;;;;;;20.16;85.57;97621.06;1710507;83;20873;-64
2022/07/06 01:01:26;;;;;;;4.58;4.12;;;;;;;20.21;85.25;97622.13;1710497;84;21388;-59
2022/07/06 01:03:53;;;;;;;7.08;4.10;;;;;;;20.25;85.13;97618.16;1710767;84;21973;-61
2022/07/06 01:06:21;;;;;;;7.28;4.42;;;;;;;20.30;84.88;97613.79;1710377;83;21023;-63
2022/07/06 01:08:47;;;;;;;5.35;4.47;;;;;;;20.32;84.62;97606.05;1710762;84;21384;-61
2022/07/06 01:11:14;;;;;;;4.40;4.00;;;;;;;20.34;84.48;97610.55;1710840;84;21472;-60
2022/07/06 01:13:41;;;;;;;15.80;4.33;;;;;;;20.34;84.26;97614.06;1710541;84;20991;-61
2022/07/06 01:16:07;;;;;;;4.72;4.22;;;;;;;20.37;84.13;97615.27;1710721;83;22167;-60
2022/07/06 01:18:36;;;;;;;4.58;4.03;;;;;;;20.40;84.01;97614.52;1710479;83;20889;-60
2022/07/06 01:21:11;;;;;;;9.93;4.47;;;;;;;20.42;83.90;97619.02;1710452;84;20979;-63
2022/07/06 01:23:40;;;;;;;5.12;4.30;;;;;;;20.43;83.66;97618.68;1705031;83;20948;-63
2022/07/06 01:26:12;;;;;;;4.83;4.30;;;;;;;20.42;83.62;97599.98;1704911;84;21427;-60
2022/07/06 01:28:39;;;;;;;5.65;4.25;;;;;;;20.42;83.61;97595.91;1703896;84;21100;-59
2022/07/06 01:31:08;;;;;;;6.62;4.33;;;;;;;20.40;83.64;97593.56;1704177;84;21397;-62
2022/07/06 01:33:35;;;;;;;6.03;4.70;;;;;;;20.41;83.77;97596.50;1677798;84;21420;-61
2022/07/06 01:36:04;;;;;;;5.30;4.80;;;;;;;20.41;83.69;97592.98;1703976;84;21486;-61
2022/07/06 01:38:31;;;;;;;5.22;4.78;;;;;;;20.40;83.70;97600.36;1703880;84;20944;-63
2022/07/06 01:40:57;;;;;;;10.03;4.90;;;;;;;20.39;83.84;97585.77;1676098;84;21125;-59
2022/07/06 01:43:24;;;;;;;5.15;4.60;;;;;;;20.37;83.93;97594.28;1705069;84;20940;-59
2022/07/06 01:45:50;;;;;;;5.85;4.70;;;;;;;20.38;84.16;97591.78;1704820;84;20940;-61
2022/07/06 01:48:17;;;;;;;6.22;4.75;;;;;;;20.38;84.25;97582.83;1703668;84;20901;-60
2022/07/06 01:50:44;;;;;;;8.20;4.97;;;;;;;20.38;84.39;97581.47;1704864;84;20944;-58
2022/07/06 01:53:11;;;;;;;6.42;4.72;;;;;;;20.37;84.63;97575.23;1703582;84;21112;-65
2022/07/06 01:55:38;;;;;;;5.45;4.17;;;;;;;20.38;84.79;97556.42;1704485;84;21452;-63
2022/07/06 01:58:05;;;;;;;5.25;4.25;;;;;;;20.39;84.84;97545.77;1703530;84;20885;-59
2022/07/06 02:00:32;;;;;;;7.65;4.50;;;;;;;20.39;84.93;97543.05;1704179;84;21491;-59
2022/07/06 02:02:59;;;;;;;6.17;5.10;;;;;;;20.41;85.08;97523.06;1704403;84;21425;-62
2022/07/06 02:05:25;;;;;;;5.05;4.25;;;;;;;20.37;85.12;97480.05;1704421;84;21427;-60
2022/07/06 02:07:52;;;;;;;8.55;4.58;;;;;;;20.35;85.67;97494.59;1717718;83;20940;-60
2022/07/06 02:10:18;;;;;;;5.70;4.55;;;;;;;20.33;86.23;97514.57;1703329;84;20861;-61
2022/07/06 02:12:46;;;;;;;7.22;4.70;;;;;;;20.31;86.59;97509.28;1704796;84;21452;-58
2022/07/06 02:15:13;;;;;;;7.53;4.90;;;;;;;20.28;86.93;97495.84;1703382;84;20999;-60
2022/07/06 02:17:40;;;;;;;5.60;4.78;;;;;;;20.25;87.06;97500.67;1703894;84;21318;-58
2022/07/06 02:20:09;;;;;;;5.60;4.92;;;;;;;20.25;87.21;97502.59;1705786;84;20885;-59
2022/07/06 02:22:35;;;;;;;5.03;4.50;;;;;;;20.23;87.34;97501.58;1717658;83;20935;-59
2022/07/06 02:25:03;;;;;;;6.72;5.05;;;;;;;20.22;87.10;97497.31;1717541;83;20996;-62
2022/07/06 02:27:30;;;;;;;8.08;4.95;;;;;;;20.22;87.07;97508.75;1717543;83;21476;-60
2022/07/06 02:29:57;;;;;;;7.40;4.60;;;;;;;20.24;87.00;97523.56;1717636;83;21674;-60
2022/07/06 02:32:25;;;;;;;6.40;4.55;;;;;;;20.23;86.84;97528.77;1717659;83;20901;-60
2022/07/06 02:34:52;;;;;;;6.17;4.20;;;;;;;20.20;87.05;97544.45;1704416;84;20983;-62
2022/07/06 02:37:19;;;;;;;6.28;4.87;;;;;;;20.19;86.84;97553.73;1704898;84;20949;-61
2022/07/06 02:39:46;;;;;;;10.43;5.10;;;;;;;20.17;86.82;97546.52;1703450;84;21428;-62
2022/07/06 02:42:13;;;;;;;6.45;5.00;;;;;;;20.14;86.94;97554.03;1717650;83;21242;-60
2022/07/06 02:44:39;;;;;;;5.70;4.75;;;;;;;20.15;86.94;97539.30;1704259;84;20893;-61
2022/07/06 02:47:06;;;;;;;8.23;4.95;;;;;;;20.17;86.88;97535.64;1704087;84;21005;-63
2022/07/06 02:49:33;;;;;;;6.70;4.80;;;;;;;20.23;86.61;97548.41;1702141;84;20952;-61
2022/07/06 02:52:00;;;;;;;5.90;4.83;;;;;;;20.25;86.65;97553.70;1701973;84;21448;-62
2022/07/06 02:54:27;;;;;;;8.00;4.72;;;;;;;20.26;86.69;97590.59;1702906;84;21448;-62
2022/07/06 02:56:53;;;;;;;5.87;4.83;;;;;;;20.26;86.54;97602.84;1704017;84;20972;-62
2022/07/06 02:59:20;;;;;;;5.20;4.60;;;;;;;20.27;86.43;97570.99;1704030;84;20928;-60
2022/07/06 03:01:47;;;;;;;5.75;4.87;;;;;;;20.26;86.65;97593.31;1703681;84;20913;-61
2022/07/06 03:04:14;;;;;;;6.70;4.97;;;;;;;20.29;86.66;97593.96;1704632;84;20956;-63
2022/07/06 03:06:41;;;;;;;7.58;5.00;;;;;;;20.33;86.66;97603.52;1705269;84;21534;-63
2022/07/06 03:09:07;;;;;;;6.58;4.40;;;;;;;20.32;86.59;97609.56;1704142;84;20941;-63
2022/07/06 03:11:40;;;;;;;7.42;4.17;;;;;;;20.29;86.31;97598.04;1718033;83;20920;-65
2022/07/06 03:14:04;;;;;;;5.97;4.45;;;;;;;20.25;86.11;97571.37;1717007;83;20995;-64
2022/07/06 03:16:33;;;;;;;6.70;4.28;;;;;;;20.25;86.47;97598.56;1717609;83;21004;-59
2022/07/06 03:19:00;;;;;;;4.90;4.33;;;;;;;20.28;86.32;97602.46;1717509;83;21229;-63
2022/07/06 03:21:26;;;;;;;6.25;4.50;;;;;;;20.28;85.96;97607.33;1703254;84;20897;-62
2022/07/06 03:23:54;;;;;;;4.90;4.30;;;;;;;20.30;85.85;97611.06;1704514;84;20940;-62
2022/07/06 03:26:20;;;;;;;7.90;4.58;;;;;;;20.29;85.69;97600.76;1702886;84;20952;-60
2022/07/06 03:28:47;;;;;;;5.67;4.20;;;;;;;20.32;85.58;97595.17;1705640;84;21451;-63
2022/07/06 03:31:14;;;;;;;4.28;3.87;;;;;;;20.33;85.63;97590.72;1704424;84;21247;-61
2022/07/06 03:33:42;;;;;;;7.03;4.60;;;;;;;20.37;85.86;97577.95;1702981;84;21531;-63
2022/07/06 03:36:09;;;;;;;7.00;4.00;;;;;;;20.41;85.72;97584.27;1704849;84;20885;-63
2022/07/06 03:38:36;;;;;;;5.80;4.45;;;;;;;20.41;85.86;97577.46;1717627;83;20916;-64
2022/07/06 03:41:03;;;;;;;6.12;4.10;;;;;;;20.45;86.02;97576.94;1717547;83;21083;-61
2022/07/06 03:43:30;;;;;;;6.17;4.47;;;;;;;20.49;86.28;97570.78;1717603;83;21692;-63
2022/07/06 03:45:58;;;;;;;6.60;4.60;;;;;;;20.51;86.39;97561.67;1703578;84;21374;-60
2022/07/06 03:48:25;;;;;;;8.45;4.33;;;;;;;20.51;86.59;97557.59;1703753;84;20889;-59
2022/07/06 03:50:54;;;;;;;5.00;4.35;;;;;;;20.52;86.86;97554.50;1703508;84;20997;-64
2022/07/06 03:53:22;;;;;;;6.22;4.37;;;;;;;20.55;86.89;97557.06;1703545;84;20999;-63
2022/07/06 03:56:27;;;;;;;11.88;4.33;;;;;;;20.56;86.79;97554.56;1704571;84;21268;-62
2022/07/06 03:58:16;;;;;;;5.72;4.10;;;;;;;20.59;86.64;97563.34;1699670;84;20928;-64
2022/07/06 04:00:44;;;;;;;4.85;4.10;;;;;;;20.59;86.72;97570.14;1717629;83;20940;-60
2022/07/06 04:03:12;;;;;;;5.30;3.52;;;;;;;20.59;86.22;97570.93;1717490;83;21079;-64
2022/07/06 04:05:40;;;;;;;5.65;4.12;;;;;;;20.60;85.76;97577.95;1716988;83;21030;-64
2022/07/06 04:08:07;;;;;;;4.17;3.75;;;;;;;20.65;85.76;97579.58;1702941;84;21234;-62
2022/07/06 04:10:36;;;;;;;4.40;3.92;;;;;;;20.69;85.88;97573.61;1703000;83;20861;-63
2022/07/06 04:13:04;;;;;;;5.95;4.10;;;;;;;20.76;86.04;97578.59;1705667;83;20988;-59
2022/07/06 04:15:32;;;;;;;5.58;4.05;;;;;;;20.81;86.00;97584.29;1702836;84;20909;-63
2022/07/06 04:17:59;;;;;;;6.55;4.33;;;;;;;20.84;85.07;97584.92;1703033;84;20936;-64
2022/07/06 04:20:28;;;;;;;5.85;4.25;;;;;;;20.89;85.32;97587.34;1703249;84;21142;-64
2022/07/06 04:22:55;;;;;;;5.78;4.50;;;;;;;20.94;84.67;97584.28;1699255;84;20973;-63
2022/07/06 04:25:22;;;;;;;4.47;3.80;;;;;;;20.99;84.76;97590.77;1682786;84;21453;-61
2022/07/06 04:27:49;;;;;;;4.97;4.08;;;;;;;21.06;84.57;97581.38;1682609;85;20929;-62
2022/07/06 04:30:16;;;;;;;5.65;3.70;;;;;;;21.09;84.30;97573.84;1682896;85;20945;-59
2022/07/06 04:32:43;;;;;;;7.03;4.65;;;;;;;21.10;84.32;97578.14;1682904;85;21234;-64
2022/07/06 04:35:10;;;;;;;6.05;4.35;;;;;;;21.13;83.66;97578.75;1683010;84;21397;-62
2022/07/06 04:37:39;;;;;;;4.45;4.05;;;;;;;21.12;83.76;97578.55;1671429;85;21429;-62
2022/07/06 04:40:07;;;;;;;9.00;4.28;;;;;;;21.13;83.19;97587.70;1715075;83;20937;-60
2022/07/06 04:42:34;;;;;;;5.10;3.98;;;;;;;21.14;83.13;97587.14;1715145;83;20976;-64
2022/07/06 04:45:01;;;;;;;11.03;4.20;;;;;;;21.15;83.03;97591.41;1671218;85;21265;-60
2022/07/06 04:47:28;;;;;;;5.70;4.45;;;;;;;21.17;83.00;97598.66;1682886;85;20933;-60
2022/07/06 04:49:55;;;;;;;5.87;4.58;;;;;;;21.19;83.31;97609.97;1682901;85;20937;-64
2022/07/06 04:52:22;;;;;;;6.08;4.30;;;;;;;21.20;83.32;97610.77;1682728;85;20997;-63
2022/07/06 04:54:49;;;;;;;5.37;4.10;;;;;;;21.20;82.85;97600.63;1683102;85;21450;-63
2022/07/06 04:57:15;;;;;;;6.17;4.15;;;;;;;21.22;82.94;97600.28;1682780;85;21212;-62
2022/07/06 04:59:43;;;;;;;7.47;4.20;;;;;;;21.29;83.48;97605.22;1715486;83;21523;-60
2022/07/06 05:02:09;;;;;;;6.28;4.05;;;;;;;21.37;82.48;97610.98;1683040;84;20933;-60
2022/07/06 05:04:36;;;;;;;5.62;4.62;;;;;;;21.41;82.49;97604.23;1682896;84;20933;-65
2022/07/06 05:07:03;;;;;;;6.17;4.33;;;;;;;21.48;82.00;97609.77;1682915;84;20980;-65
2022/07/06 05:09:30;;;;;;;6.72;4.17;;;;;;;21.55;82.17;97609.86;1683014;85;21131;-61
2022/07/06 05:11:59;;;;;;;4.83;4.25;;;;;;;21.65;82.49;97605.09;1682886;84;20901;-64
2022/07/06 05:14:26;;;;;;;4.75;4.20;;;;;;;21.77;82.40;97606.22;1682930;85;20893;-62
2022/07/06 05:16:55;;;;;;;6.00;4.12;;;;;;;21.86;81.24;97608.10;1682902;84;20956;-61
2022/07/06 05:19:22;;;;;;;5.92;4.75;;;;;;;21.90;81.47;97616.33;1682867;84;20953;-61
2022/07/06 05:21:49;;;;;;;5.67;4.10;;;;;;;21.92;81.12;97627.64;1683297;85;21135;-61
2022/07/06 05:24:15;;;;;;;8.65;4.40;;;;;;;21.94;81.11;97630.21;1682953;83;20933;-60
2022/07/06 05:26:42;;;;;;;5.10;4.60;;;;;;;22.01;81.00;97629.50;1682968;85;20905;-63
2022/07/06 05:29:10;;;;;;;5.42;4.30;;;;;;;22.06;80.29;97641.44;1682896;85;21492;-60
2022/07/06 05:31:37;;;;;;;7.22;4.60;;;;;;;22.06;80.34;97629.16;1682918;85;20921;-61
2022/07/06 05:34:03;;;;;;;7.28;4.70;;;;;;;22.05;80.35;97626.22;1674543;85;21531;-64
2022/07/06 05:36:30;;;;;;;7.10;4.67;;;;;;;22.07;80.39;97625.30;1685175;84;20909;-61
2022/07/06 05:38:58;;;;;;;5.12;4.35;;;;;;;22.08;80.14;97635.03;1675960;85;21443;-62
2022/07/06 05:41:25;;;;;;;8.73;4.25;;;;;;;22.10;79.93;97627.25;1675500;84;21010;-60
2022/07/06 05:43:52;;;;;;;5.85;4.35;;;;;;;22.08;79.12;97630.94;1665507;85;21041;-58
2022/07/06 05:46:18;;;;;;;4.90;4.40;;;;;;;22.05;79.19;97634.41;1681867;84;21110;-63
2022/07/06 05:51:30;;;;;;;8.08;4.60;;;;;;;22.09;79.47;97635.25;1683028;85;20946;-57
2022/07/06 05:53:59;;;;;;;6.55;4.45;;;;;;;22.11;79.79;97624.74;1681124;85;38639;-60
2022/07/06 05:56:26;;;;;;;5.50;4.53;;;;;;;22.17;79.46;97619.14;1659599;85;20969;-62
2022/07/06 05:58:53;;;;;;;6.47;4.50;;;;;;;22.24;79.25;97620.58;1655499;86;21694;-58
2022/07/06 06:01:20;;;;;;;5.33;4.30;;;;;;;22.26;78.57;97618.26;1678291;85;21487;-61
2022/07/06 06:03:48;;;;;;;6.17;4.37;;;;;;;22.27;78.82;97608.92;1675888;84;20906;-62
2022/07/06 06:06:15;;;;;;;7.20;4.35;;;;;;;22.31;78.81;97612.46;1680566;83;21467;-58
2022/07/06 06:08:42;;;;;;;5.92;4.80;;;;;;;22.40;78.82;97602.02;1666495;83;21200;-58
2022/07/06 06:11:22;;;;;;;6.00;4.22;;;;;;;22.52;78.66;97612.66;1673276;85;21027;-59
2022/07/06 06:13:50;;;;;;;6.25;4.30;;;;;;;22.61;76.48;97609.05;1668959;85;21088;-62
2022/07/06 06:16:17;;;;;;;4.55;4.03;;;;;;;22.64;76.36;97606.15;1668114;85;21528;-59
2022/07/06 06:18:44;;;;;;;4.42;4.00;;;;;;;22.71;76.34;97608.36;1663944;85;21128;-59
2022/07/06 06:21:10;;;;;;;6.62;4.53;;;;;;;22.75;76.47;97607.04;1681627;85;20934;-60
2022/07/06 06:23:38;;;;;;;6.87;4.17;;;;;;;22.86;76.68;97611.98;1687208;84;22190;-63
2022/07/06 06:26:05;;;;;;;5.53;4.35;;;;;;;22.99;76.83;97613.23;1703666;84;21507;-60
2022/07/06 06:28:31;;;;;;;9.10;4.72;;;;;;;23.05;75.70;97615.26;1702243;84;21002;-58
2022/07/06 06:30:58;;;;;;;6.25;4.10;;;;;;;23.05;75.79;97616.63;1699925;84;20920;-62
2022/07/06 06:33:24;;;;;;;10.70;4.40;;;;;;;23.04;75.15;97617.77;1694764;84;20912;-60
2022/07/06 06:35:52;;;;;;;7.50;4.20;;;;;;;23.01;74.44;97625.35;1698108;84;21198;-59
2022/07/06 06:38:22;;;;;;;5.62;4.40;;;;;;;22.99;74.45;97624.95;1693834;84;21098;-58
2022/07/06 06:40:49;;;;;;;4.75;4.20;;;;;;;22.95;74.71;97626.88;1670037;84;21034;-61
2022/07/06 06:43:15;;;;;;;6.53;4.80;;;;;;;22.94;74.70;97630.77;1679687;84;21002;-61
2022/07/06 06:45:46;;;;;;;5.47;4.45;;;;;;;22.90;75.04;97621.77;1669176;84;21004;-60
2022/07/06 06:48:13;;;;;;;5.10;3.87;;;;;;;22.91;75.53;97631.55;1671415;84;22031;-61
2022/07/06 06:50:40;;;;;;;6.35;4.25;;;;;;;22.93;75.54;97627.84;1671754;85;20901;-59
2022/07/06 06:53:07;;;;;;;9.58;4.12;;;;;;;22.95;75.43;97626.09;1664520;85;21016;-65
2022/07/06 06:55:34;;;;;;;6.25;4.37;;;;;;;22.98;75.41;97623.98;1698104;84;21554;-57
2022/07/06 06:58:08;;;;;;;4.70;4.30;;;;;;;23.04;75.63;97622.45;1663658;85;21111;-61
2022/07/06 07:00:47;;;;;;;;;;;;;;;23.09;75.39;97631.08;1667978;84;21066;-63
2022/07/06 07:03:33;;;;;;;6.65;4.50;;;;;;;23.13;75.89;97627.78;1696717;84;20459;-65
2022/07/06 07:06:21;;;;;;;5.47;4.10;;;;;;;23.15;75.43;97626.81;1691322;84;20999;-59
2022/07/06 07:08:57;;;;;;;5.87;4.28;;;;;;;23.15;74.51;97628.18;1684766;83;21022;-63
2022/07/06 07:11:25;;;;;;;5.90;4.30;;;;;;;23.15;74.26;97630.15;1692833;84;21016;-62
2022/07/06 07:13:52;;;;;;;4.42;4.00;;;;;;;23.21;74.50;97636.02;1697792;84;21170;-62
2022/07/06 07:16:19;;;;;;;8.95;4.17;;;;;;;23.27;74.64;97637.24;1697603;84;20912;-66
2022/07/06 07:18:45;;;;;;;5.03;4.53;;;;;;;23.32;73.90;97634.16;1697354;84;20958;-63
2022/07/06 07:21:12;;;;;;;6.22;4.40;;;;;;;23.33;73.58;97635.12;1697641;84;21009;-62
2022/07/06 07:23:38;;;;;;;5.67;4.33;;;;;;;23.31;73.69;97633.94;1696571;84;21028;-67
2022/07/06 07:26:06;;;;;;;5.87;4.58;;;;;;;23.35;74.13;97630.67;1667606;84;21543;-65
2022/07/06 07:28:33;;;;;;;6.53;4.67;;;;;;;23.42;75.08;97632.08;1630993;85;21514;-61
2022/07/06 07:31:00;;;;;;;6.42;4.33;;;;;;;23.59;75.30;97628.08;1657519;84;21452;-63
2022/07/06 07:33:30;;;;;;;5.28;4.80;;;;;;;23.77;74.32;97634.97;1661058;84;21112;-61
2022/07/06 07:35:57;;;;;;;6.67;4.70;;;;;;;23.94;75.04;97626.05;1665193;85;20984;-62
2022/07/06 07:38:38;;;;;;;11.88;5.62;;;;;;;24.11;73.85;97635.52;1660996;84;21140;-60
2022/07/06 07:41:11;;;;;;;;;;;;;;;24.19;72.13;97640.61;1654718;85;21008;-64
2022/07/06 07:43:38;;;;;;;6.10;5.03;;;;;;;24.18;71.41;97639.64;1706664;83;20107;-60
2022/07/06 07:46:04;;;;;;;8.50;6.08;;;;;;;24.16;71.70;97638.66;1701452;83;20944;-63
2022/07/06 07:48:32;;;;;;;6.65;5.12;;;;;;;24.18;70.80;97640.42;1691287;83;20985;-64
2022/07/06 07:51:00;;;;;;;8.30;5.72;;;;;;;24.13;71.58;97644.91;1689162;83;21146;-62
2022/07/06 07:53:27;;;;;;;8.03;5.35;;;;;;;24.09;71.85;97646.06;1690258;83;21067;-61
2022/07/06 07:56:00;;;;;;;8.58;5.40;;;;;;;24.07;72.04;97642.33;1710562;83;20871;-63
2022/07/06 07:58:29;;;;;;;10.68;5.50;;;;;;;24.14;71.98;97640.98;1714767;83;21027;-64
2022/07/06 08:00:55;;;;;;;9.33;6.28;;;;;;;24.28;71.80;97645.73;1705758;83;20993;-61
2022/07/06 08:03:22;;;;;;;6.72;5.50;;;;;;;24.44;70.70;97646.93;1717603;83;21118;-60
2022/07/06 08:05:48;;;;;;;8.20;6.00;;;;;;;24.55;70.53;97644.19;1692751;83;20943;-63
2022/07/06 08:08:16;;;;;;;7.08;6.03;;;;;;;24.58;71.02;97644.00;1684350;83;21140;-59
2022/07/06 08:10:43;;;;;;;7.78;6.20;;;;;;;24.63;70.85;97635.41;1683333;83;21140;-61
2022/07/06 08:13:10;;;;;;;14.47;5.50;;;;;;;24.84;71.66;97642.28;1688138;83;21080;-60
2022/07/06 08:15:38;;;;;;;7.05;5.60;;;;;;;25.04;67.99;97646.17;1684830;83;21247;-64
2022/07/06 08:18:05;;;;;;;6.92;5.87;;;;;;;25.05;68.87;97657.34;1689099;83;20997;-66
2022/07/06 08:20:32;;;;;;;10.55;5.92;;;;;;;25.12;68.93;97658.70;1675229;83;21047;-65
2022/07/06 08:22:58;;;;;;;7.35;6.20;;;;;;;25.22;67.34;97654.39;1715500;83;20908;-63
2022/07/06 08:25:25;;;;;;;11.08;6.85;;;;;;;25.22;66.82;97655.76;1734068;82;21044;-60
2022/07/06 08:27:54;;;;;;;8.80;7.00;;;;;;;25.00;66.96;97662.63;1730921;82;21495;-58
2022/07/06 08:30:23;;;;;;;10.40;7.58;;;;;;;25.00;66.96;97662.63;1719783;82;21031;-66
2022/07/06 08:32:49;;;;;;;12.20;7.83;;;;;;;24.75;67.13;97656.92;1701165;82;21068;-63
2022/07/06 08:35:16;;;;;;;8.73;7.75;;;;;;;24.45;68.99;97655.91;1673786;85;21016;-64
2022/07/06 08:37:43;;;;;;;14.30;9.20;;;;;;;23.95;70.08;97672.77;1728458;81;20957;-63
2022/07/06 08:40:10;;;;;;;10.72;9.45;;;;;;;23.95;70.08;97672.77;1735299;81;21245;-63
2022/07/06 08:42:37;;;;;;;12.60;10.13;;;;;;;23.74;70.36;97691.81;1721879;82;20991;-64
2022/07/06 08:45:07;;;;;;;12.18;11.05;;;;;;;23.51;71.00;97693.42;1727223;81;20943;-63
2022/07/06 08:47:36;;;;;;;12.37;11.00;;;;;;;23.40;71.50;97706.25;1722527;81;21514;-63
2022/07/06 08:50:04;;;;;;;12.20;11.03;;;;;;;23.28;72.50;97703.00;1729826;82;21134;-61
2022/07/06 08:52:32;;;;;;;12.53;10.88;;;;;;;23.14;72.45;97707.78;1672541;84;21154;-63
2022/07/06 08:54:58;;;;;;;11.78;10.35;;;;;;;22.95;72.23;97718.94;1653405;85;21088;-64
2022/07/06 08:57:25;;;;;;;11.93;10.72;;;;;;;22.75;73.03;97733.38;1667454;85;21058;-61
2022/07/06 08:59:52;;;;;;;13.72;11.08;;;;;;;22.58;73.64;97723.06;1676523;85;21003;-61
2022/07/06 09:02:18;;;;;;;13.00;11.00;;;;;;;22.45;74.64;97720.38;1658713;84;21071;-65
2022/07/06 09:04:45;;;;;;;12.10;10.90;;;;;;;22.24;75.80;97714.69;1725446;81;21095;-65
2022/07/06 09:07:12;;;;;;;11.88;10.78;;;;;;;21.96;77.43;97715.71;1732404;81;20935;-61
2022/07/06 09:09:39;;;;;;;12.93;11.63;;;;;;;21.73;79.17;97724.76;1696764;84;20988;-61
2022/07/06 09:12:11;;;;;;;12.73;11.43;;;;;;;21.57;80.99;97732.33;1705883;82;21167;-63
2022/07/06 09:14:39;;;;;;;13.08;11.78;;;;;;;21.41;82.41;97737.73;1714277;81;21037;-63
2022/07/06 09:17:07;;;;;;;12.45;11.12;;;;;;;21.24;83.47;97748.55;1712217;83;21246;-62
2022/07/06 09:19:34;;;;;;;13.28;11.88;;;;;;;21.17;84.42;97747.66;1720013;83;20985;-61
2022/07/06 09:22:02;;;;;;;13.15;11.85;;;;;;;21.18;85.09;97739.11;1730383;81;20967;-62
2022/07/06 09:24:28;;;;;;;14.00;11.83;;;;;;;21.24;85.55;97741.75;1684779;84;21100;-59
2022/07/06 09:26:56;;;;;;;13.75;12.23;;;;;;;21.21;85.67;97760.17;1655348;85;21146;-61
2022/07/06 09:29:29;;;;;;;12.88;11.40;;;;;;;21.21;85.52;97760.17;1650903;86;21821;-63
2022/07/06 09:31:59;;;;;;;11.18;10.10;;;;;;;21.16;85.59;97768.64;1651831;86;20992;-64
2022/07/06 09:34:44;;;;;;;11.75;10.08;;;;;;;21.11;85.64;97774.39;1652170;86;21075;-62
2022/07/06 09:37:11;;;;;;;11.53;9.63;;;;;;;21.06;85.80;97786.94;1652058;86;21154;-59
2022/07/06 09:39:38;;;;;;;10.88;9.03;;;;;;;20.96;85.96;97776.05;1653608;86;20924;-62
2022/07/06 09:42:07;;;;;;;9.13;8.23;;;;;;;20.86;86.35;97778.59;1670292;85;21085;-59
2022/07/06 09:44:36;;;;;;;9.10;8.20;;;;;;;20.77;86.82;97782.93;1670376;85;21075;-60
2022/07/06 09:47:06;;;;;;;9.55;7.87;;;;;;;20.70;87.39;97795.05;1670315;85;21504;-60
2022/07/06 09:49:32;;;;;;;7.40;6.70;;;;;;;20.63;87.59;97783.23;1669763;86;20984;-61
2022/07/06 09:52:02;;;;;;;6.87;6.28;;;;;;;20.60;87.95;97790.75;1669865;86;21059;-61
2022/07/06 09:54:29;;;;;;;7.53;5.53;;;;;;;20.55;88.33;97797.27;1670236;85;21058;-60
2022/07/06 09:56:56;;;;;;;5.97;5.03;;;;;;;20.51;87.68;97801.07;1670106;85;21015;-59
2022/07/06 09:59:26;;;;;;;5.53;5.12;;;;;;;20.50;87.51;97806.28;1669981;86;20997;-62
2022/07/06 10:01:56;;;;;;;7.28;5.67;;;;;;;20.42;87.55;97810.79;1670350;85;20929;-63
2022/07/06 10:04:23;;;;;;;6.47;5.87;;;;;;;20.36;87.94;97819.83;1670168;86;21003;-62
2022/07/06 10:06:51;;;;;;;8.15;7.35;;;;;;;20.37;88.30;97827.42;1670352;85;21276;-62
2022/07/06 10:09:20;;;;;;;9.93;9.15;;;;;;;20.34;88.43;97830.28;1680643;85;20920;-62
2022/07/06 10:11:59;;;;;;;11.20;9.78;;;;;;;20.20;88.14;97834.59;1658728;86;20921;-59
2022/07/06 10:14:29;;;;;;;12.00;9.50;;;;;;;19.99;88.32;97830.86;1686456;85;20905;-61
2022/07/06 10:16:58;;;;;;;11.60;9.45;;;;;;;19.79;88.90;97823.78;1658269;86;21458;-58
2022/07/06 10:19:25;;;;;;;10.53;9.53;;;;;;;19.63;89.53;97836.61;1686459;85;21197;-59
2022/07/06 10:21:51;;;;;;;9.70;8.85;;;;;;;19.50;90.33;97837.27;1658764;86;20962;-58
2022/07/06 10:24:20;;;;;;;8.43;7.58;;;;;;;19.39;91.71;97829.44;1686486;85;21594;-59
2022/07/06 10:26:47;;;;;;;7.85;7.15;;;;;;;19.29;92.04;97819.66;1632206;88;21064;-58
2022/07/06 10:29:14;;;;;;;6.97;6.33;;;;;;;19.20;92.83;97815.74;1688188;85;21009;-58
2022/07/06 10:31:43;;;;;;;5.95;5.45;;;;;;;19.13;93.32;97806.86;1688005;85;21295;-55
2022/07/06 10:34:12;;;;;;;4.58;4.17;;;;;;;19.07;93.75;97797.41;1687947;85;21479;-58
2022/07/06 10:36:42;;;;;;;4.28;3.17;;;;;;;19.04;94.09;97803.53;1687863;85;20931;-59
2022/07/06 10:41:55;;;;;;;3.17;2.87;;;;;;;18.85;93.92;97803.42;1688160;85;20998;-57
2022/07/06 10:44:26;;;;;;;5.55;2.90;;;;;;;18.80;94.43;97812.38;1688105;85;21687;-58
2022/07/06 10:46:57;;;;;;;2.83;2.62;;;;;;;18.77;94.79;97801.64;1687921;85;20951;-56
2022/07/06 10:49:26;;;;;;;3.10;2.60;;;;;;;18.76;94.82;97789.23;1688053;85;20990;-60
2022/07/06 10:51:53;;;;;;;2.58;2.22;;;;;;;18.72;94.95;97774.00;1687995;85;20955;-59
2022/07/06 10:54:20;;;;;;;3.67;2.00;;;;;;;18.71;95.47;97774.56;1688152;85;20939;-60
2022/07/06 10:56:50;;;;;;;2.40;1.90;;;;;;;18.73;95.78;97771.48;1687802;85;21262;-60
2022/07/06 10:59:19;;;;;;;2.75;1.90;;;;;;;18.73;95.96;97779.62;1687868;85;20991;-58
2022/07/06 11:02:20;;;;;;;3.40;1.60;;;;;;;18.64;96.18;97777.09;1688021;85;20935;-57
2022/07/06 11:04:48;;;;;;;2.00;1.30;;;;;;;18.55;96.60;97794.09;1664588;85;20967;-57
2022/07/06 11:07:19;;;;;;;1.72;1.05;;;;;;;18.40;96.62;97799.66;1687821;85;21550;-58
2022/07/06 11:09:59;;;;;;;1.05;0.82;;;;;;;18.36;96.51;97800.69;1689070;85;21895;-57
2022/07/06 11:12:25;;;;;;;1.30;0.90;;;;;;;18.29;95.99;97800.49;1688812;85;21448;-59
2022/07/06 11:14:52;;;;;;;4.00;1.12;;;;;;;18.23;96.44;97795.11;1689125;85;21574;-60
2022/07/06 11:17:20;;;;;;;1.35;1.22;;;;;;;18.21;96.79;97806.83;1688725;85;21003;-59
2022/07/06 11:19:57;;;;;;;2.95;1.60;;;;;;;18.13;95.97;97804.51;1688998;85;20955;-60
2022/07/06 11:22:24;;;;;;;2.98;1.22;;;;;;;18.04;96.16;97826.09;1689007;85;21311;-58
2022/07/06 11:24:55;;;;;;;2.08;1.40;;;;;;;17.93;96.10;97828.48;1689115;85;21478;-59
2022/07/06 11:27:24;;;;;;;3.47;1.50;;;;;;;17.88;96.64;97841.45;1658314;86;20994;-58
2022/07/06 11:29:51;;;;;;;1.80;1.50;;;;;;;17.81;97.04;97844.75;1657900;86;21467;-59
2022/07/06 11:32:24;;;;;;;2.47;1.60;;;;;;;17.76;97.40;97844.97;1658673;86;20918;-61
2022/07/06 11:34:52;;;;;;;2.52;1.55;;;;;;;17.72;97.32;97853.00;1632621;86;22108;-59
2022/07/06 11:37:18;;;;;;;1.52;1.42;;;;;;;17.68;97.29;97854.02;1630101;88;20935;-58
2022/07/06 11:39:46;;;;;;;1.90;1.50;;;;;;;17.67;96.92;97849.72;1630787;88;21018;-60
2022/07/06 11:42:19;;;;;;;1.22;1.12;;;;;;;17.73;97.65;97845.08;1630544;88;20931;-58